Time;durP1;ratioP1;P1;durP2;ratioP2;P2;SDS_P1;SDS_P2;PMS_P1;PMS_P2;Temp;Humidity;BMP_temperature;BMP_pressure;BME280_temperature;BME280_humidity;BME280_pressure;Samples;Min_cycle;Max_cycle;Signal;HPM_P1;HPM_P2
2021/10/26 00:01:23;;;;;;;11.30;6.95;;;;;;;10.96;73.76;100550.88;4934045;28;20127;-85
2021/10/26 00:03:50;;;;;;;12.15;6.07;;;;;;;11.07;73.39;100546.94;4933719;29;20070;-85
2021/10/26 00:06:18;;;;;;;9.82;5.82;;;;;;;11.15;72.50;100547.44;4934047;29;20099;-87
2021/10/26 00:08:44;;;;;;;15.65;7.70;;;;;;;10.93;75.07;100548.44;4933435;29;20048;-86
2021/10/26 00:11:11;;;;;;;8.40;6.10;;;;;;;10.90;77.12;100545.97;4935984;29;20505;-86
2021/10/26 00:13:38;;;;;;;16.75;5.85;;;;;;;10.87;76.79;100542.66;4937147;29;20040;-85
2021/10/26 00:16:06;;;;;;;9.80;6.68;;;;;;;10.88;76.13;100539.97;4936650;29;20410;-86
2021/10/26 00:18:33;;;;;;;10.68;5.65;;;;;;;10.90;75.30;100542.50;4937013;29;20403;-86
2021/10/26 00:21:00;;;;;;;8.32;6.50;;;;;;;10.96;74.90;100542.22;4935844;29;20478;-86
2021/10/26 00:23:26;;;;;;;10.25;6.15;;;;;;;11.02;74.73;100548.00;4936702;29;20058;-87
2021/10/26 00:25:53;;;;;;;9.35;6.43;;;;;;;11.10;73.71;100533.75;4936750;29;20055;-86
2021/10/26 00:28:20;;;;;;;9.95;6.65;;;;;;;11.14;73.10;100530.09;4937364;29;20125;-85
2021/10/26 00:30:47;;;;;;;10.55;6.97;;;;;;;11.05;73.89;100525.28;4936657;29;20048;-85
2021/10/26 00:33:15;;;;;;;15.05;11.40;;;;;;;10.80;76.84;100526.44;4936884;29;20074;-85
2021/10/26 00:35:42;;;;;;;14.50;9.32;;;;;;;10.81;77.59;100528.13;4952189;28;20044;-87
2021/10/26 00:38:09;;;;;;;9.13;6.57;;;;;;;10.80;77.52;100528.19;4935113;29;20387;-86
2021/10/26 00:40:36;;;;;;;14.30;6.60;;;;;;;10.81;76.99;100535.09;4936800;29;20111;-85
2021/10/26 00:43:03;;;;;;;14.55;6.97;;;;;;;10.89;75.95;100526.00;4936525;29;20046;-85
2021/10/26 00:45:29;;;;;;;10.82;6.38;;;;;;;10.98;75.48;100522.97;4936499;29;20080;-85
2021/10/26 00:47:56;;;;;;;24.92;9.07;;;;;;;11.04;75.18;100524.47;4934592;29;20178;-85
2021/10/26 00:50:24;;;;;;;9.38;7.38;;;;;;;11.06;73.68;100521.75;4935613;29;20556;-84
2021/10/26 00:52:51;;;;;;;11.75;7.05;;;;;;;11.05;74.21;100520.09;4936279;29;20051;-83
2021/10/26 00:55:21;;;;;;;12.35;7.47;;;;;;;11.10;73.38;100521.56;4935169;29;20047;-82
2021/10/26 00:57:48;;;;;;;16.25;6.95;;;;;;;11.13;75.01;100516.19;4935294;29;20048;-83
2021/10/26 01:00:16;;;;;;;10.85;7.75;;;;;;;11.06;76.72;100511.34;4934713;29;20069;-83
2021/10/26 01:02:44;;;;;;;12.95;5.95;;;;;;;10.95;76.91;100519.66;4934847;29;20059;-82
2021/10/26 01:05:19;;;;;;;8.05;6.32;;;;;;;11.08;75.85;100515.56;4934822;29;20075;-82
2021/10/26 01:07:46;;;;;;;9.48;6.60;;;;;;;11.00;75.74;100509.84;4934909;29;20063;-83
2021/10/26 01:10:13;;;;;;;9.05;6.63;;;;;;;10.88;75.44;100506.06;4947132;29;20047;-83
2021/10/26 01:12:41;;;;;;;9.82;7.30;;;;;;;10.98;74.91;100506.50;4928617;29;20407;-82
2021/10/26 01:15:09;;;;;;;10.90;7.88;;;;;;;11.02;74.58;100503.66;4930775;29;20047;-82
2021/10/26 01:17:37;;;;;;;9.00;7.00;;;;;;;11.09;75.51;100503.38;4934449;29;20091;-83
2021/10/26 01:20:04;;;;;;;11.00;7.10;;;;;;;11.04;75.92;100507.97;4935166;29;20051;-85
2021/10/26 01:22:39;;;;;;;9.77;7.38;;;;;;;11.01;75.29;100501.94;4933267;29;20051;-85
2021/10/26 01:25:10;;;;;;;23.67;10.23;;;;;;;11.07;75.70;100497.38;4933732;29;20047;-85
2021/10/26 01:27:48;;;;;;;13.70;6.60;;;;;;;10.97;76.31;100496.94;4929084;29;20048;-85
2021/10/26 01:30:16;;;;;;;10.80;7.25;;;;;;;11.00;76.98;100497.66;4944891;29;20167;-85
2021/10/26 01:32:44;;;;;;;12.80;7.85;;;;;;;11.02;77.58;100497.56;4933558;29;20048;-85
2021/10/26 01:35:36;;;;;;;10.10;6.10;;;;;;;11.03;77.55;100488.84;4933742;29;20067;-86
2021/10/26 01:38:04;;;;;;;11.98;6.70;;;;;;;10.97;77.27;100490.00;4935090;29;20047;-85
2021/10/26 01:40:31;;;;;;;12.70;7.95;;;;;;;10.91;77.40;100490.25;4928772;29;20118;-86
2021/10/26 01:43:01;;;;;;;11.05;6.75;;;;;;;10.93;77.93;100482.38;4933416;29;20048;-86
2021/10/26 01:45:27;;;;;;;11.07;7.63;;;;;;;10.90;77.68;100485.13;4933767;29;20099;-86
2021/10/26 01:48:03;;;;;;;12.40;7.82;;;;;;;10.99;77.19;100477.72;4933409;29;20044;-86
2021/10/26 01:50:30;;;;;;;11.80;7.28;;;;;;;11.02;76.65;100477.59;4933245;29;20054;-86
2021/10/26 01:52:57;;;;;;;8.73;7.15;;;;;;;10.88;76.99;100486.97;4927116;29;20415;-85
2021/10/26 01:55:24;;;;;;;13.73;8.60;;;;;;;10.68;78.19;100480.91;4949734;29;20067;-86
2021/10/26 01:57:51;;;;;;;9.88;7.35;;;;;;;10.75;78.38;100479.72;4943062;29;20448;-85
2021/10/26 02:00:40;;;;;;;10.52;6.80;;;;;;;10.67;78.88;100481.84;4935392;29;20051;-84
2021/10/26 02:03:10;;;;;;;10.63;7.97;;;;;;;10.83;78.30;100474.16;4933266;29;20406;-83
2021/10/26 02:05:37;;;;;;;14.25;7.13;;;;;;;11.00;77.99;100476.78;4933209;29;20135;-83
2021/10/26 02:08:05;;;;;;;9.98;6.78;;;;;;;10.98;78.03;100470.81;4932229;29;20407;-84
2021/10/26 02:10:32;;;;;;;22.88;8.55;;;;;;;10.92;78.79;100480.66;4933525;29;20063;-84
2021/10/26 02:12:59;;;;;;;9.18;7.15;;;;;;;10.72;81.01;100479.03;4933212;29;20127;-84
2021/10/26 02:15:27;;;;;;;14.43;8.32;;;;;;;10.49;81.68;100470.53;4933496;29;20047;-85
2021/10/26 02:17:58;;;;;;;10.88;8.20;;;;;;;9.93;86.91;100481.66;4934684;29;20134;-85
2021/10/26 02:20:25;;;;;;;13.32;7.55;;;;;;;10.18;84.99;100470.19;4933846;29;20051;-85
2021/10/26 02:22:52;;;;;;;13.30;8.68;;;;;;;10.65;83.16;100475.88;4933928;29;20075;-85
2021/10/26 02:25:21;;;;;;;13.93;8.50;;;;;;;10.30;85.23;100469.66;4933022;29;20070;-86
2021/10/26 02:27:48;;;;;;;26.40;9.63;;;;;;;10.10;87.99;100472.28;4918763;29;20050;-85
2021/10/26 02:30:16;;;;;;;14.13;8.88;;;;;;;10.16;88.44;100466.78;4934065;29;20050;-86
2021/10/26 02:32:43;;;;;;;12.98;9.50;;;;;;;10.45;86.65;100463.75;4933042;29;20051;-85
2021/10/26 02:35:10;;;;;;;15.00;9.70;;;;;;;10.20;87.40;100458.78;4933520;29;20114;-86
2021/10/26 02:37:36;;;;;;;15.50;10.00;;;;;;;10.12;87.95;100466.09;4934403;29;20044;-85
2021/10/26 02:40:04;;;;;;;15.52;9.73;;;;;;;9.97;89.04;100469.38;4933001;29;20134;-86
2021/10/26 02:42:32;;;;;;;22.42;10.05;;;;;;;10.15;88.34;100462.50;4934304;29;20067;-86
2021/10/26 02:44:59;;;;;;;13.93;10.85;;;;;;;10.30;87.17;100463.59;4933483;29;20044;-86
2021/10/26 02:47:26;;;;;;;17.50;10.93;;;;;;;10.30;86.87;100463.59;4933005;29;20440;-86
2021/10/26 02:49:52;;;;;;;17.10;11.13;;;;;;;10.32;85.99;100456.56;4933017;29;20051;-86
2021/10/26 02:52:19;;;;;;;18.00;10.25;;;;;;;10.45;84.73;100458.53;4933349;29;20044;-86
2021/10/26 02:54:46;;;;;;;17.98;10.93;;;;;;;10.34;85.01;100460.78;4932666;29;20071;-85
2021/10/26 02:57:13;;;;;;;21.30;10.80;;;;;;;10.36;85.01;100458.94;4933132;29;20055;-86
2021/10/26 02:59:40;;;;;;;14.57;11.25;;;;;;;10.41;84.66;100463.97;4933056;29;20554;-86
2021/10/26 03:02:07;;;;;;;18.92;11.82;;;;;;;10.43;84.60;100456.91;4933229;29;20044;-85
2021/10/26 03:04:35;;;;;;;15.50;10.73;;;;;;;10.18;85.76;100455.41;4932716;29;20043;-85
2021/10/26 03:07:02;;;;;;;14.82;11.18;;;;;;;9.98;87.12;100461.50;4933385;29;20052;-85
2021/10/26 03:09:28;;;;;;;15.05;10.27;;;;;;;9.87;88.19;100455.91;4934296;29;20044;-85
2021/10/26 03:11:56;;;;;;;16.17;10.75;;;;;;;10.01;88.93;100462.25;4934203;29;20046;-85
2021/10/26 03:14:22;;;;;;;13.75;10.07;;;;;;;10.27;87.92;100455.91;4934170;29;20048;-84
2021/10/26 03:16:50;;;;;;;14.98;9.40;;;;;;;10.40;86.88;100457.91;4934254;29;20398;-84
2021/10/26 03:19:17;;;;;;;11.35;8.65;;;;;;;10.52;86.12;100458.25;4933128;29;20487;-84
2021/10/26 03:21:44;;;;;;;13.43;9.57;;;;;;;10.49;86.31;100460.09;4932969;29;20051;-86
2021/10/26 03:24:11;;;;;;;16.35;10.02;;;;;;;10.56;85.87;100450.22;4932913;29;20043;-86
2021/10/26 03:26:38;;;;;;;15.88;10.38;;;;;;;10.48;86.21;100447.94;4932707;29;20048;-86
2021/10/26 03:29:07;;;;;;;16.63;10.07;;;;;;;10.53;85.74;100452.13;4933184;29;20059;-85
2021/10/26 03:31:35;;;;;;;17.73;9.52;;;;;;;10.64;85.86;100447.25;4932431;29;20043;-85
2021/10/26 03:34:44;;;;;;;15.32;10.02;;;;;;;10.61;85.50;100456.06;4933757;29;20044;-85
2021/10/26 03:37:11;;;;;;;14.27;9.90;;;;;;;10.60;86.08;100450.91;4932734;29;20044;-85
2021/10/26 03:39:38;;;;;;;10.23;8.35;;;;;;;10.32;87.09;100457.41;4932345;29;20064;-85
2021/10/26 03:42:05;;;;;;;9.93;7.03;;;;;;;10.19;88.33;100451.88;4927824;29;20498;-86
2021/10/26 03:44:32;;;;;;;14.10;8.65;;;;;;;10.39;86.65;100450.16;4939600;28;20050;-86
2021/10/26 03:46:59;;;;;;;9.63;8.32;;;;;;;10.37;86.12;100454.59;4937192;29;20079;-86
2021/10/26 03:49:26;;;;;;;16.02;9.45;;;;;;;10.46;85.05;100449.81;4935818;29;20051;-86
2021/10/26 03:51:53;;;;;;;16.88;9.35;;;;;;;10.34;85.44;100455.59;4919955;29;20143;-85
2021/10/26 03:54:22;;;;;;;10.85;8.65;;;;;;;10.29;86.85;100461.91;4936812;29;20067;-86
2021/10/26 03:56:52;;;;;;;15.52;8.88;;;;;;;10.20;87.83;100456.16;4935936;29;20056;-86
2021/10/26 03:59:19;;;;;;;16.48;10.45;;;;;;;10.15;88.96;100462.50;4935025;29;20412;-86
2021/10/26 04:01:47;;;;;;;20.70;12.07;;;;;;;10.26;88.85;100462.88;4936092;29;20043;-86
2021/10/26 04:04:13;;;;;;;13.63;9.98;;;;;;;10.34;88.58;100466.00;4935308;29;20071;-86
2021/10/26 04:06:43;;;;;;;18.17;9.68;;;;;;;10.31;88.90;100460.06;4935713;29;20039;-86
2021/10/26 04:09:12;;;;;;;14.02;10.88;;;;;;;10.28;88.51;100460.19;4935598;29;20410;-86
2021/10/26 04:11:50;;;;;;;13.90;9.45;;;;;;;10.12;89.64;100465.22;4935352;29;20035;-86
2021/10/26 04:14:18;;;;;;;16.98;10.40;;;;;;;9.95;90.65;100469.41;4918903;29;20075;-86
2021/10/26 04:16:46;;;;;;;15.55;10.82;;;;;;;9.83;92.41;100459.53;4935766;29;20079;-86
2021/10/26 04:19:15;;;;;;;17.08;10.60;;;;;;;9.85;92.78;100469.88;4920064;29;20099;-86
2021/10/26 04:21:44;;;;;;;19.58;11.80;;;;;;;9.69;93.97;100465.38;4934733;29;20427;-86
2021/10/26 04:24:11;;;;;;;18.00;11.20;;;;;;;9.86;92.92;100469.84;4935462;29;20059;-86
2021/10/26 04:26:38;;;;;;;20.75;10.82;;;;;;;9.56;94.20;100469.38;4934871;29;20046;-85
2021/10/26 04:29:04;;;;;;;19.05;10.75;;;;;;;9.66;94.44;100460.28;4936427;29;20100;-86
2021/10/26 04:31:31;;;;;;;16.48;11.35;;;;;;;9.68;93.34;100462.81;4934753;29;20044;-86
2021/10/26 04:33:59;;;;;;;15.98;10.73;;;;;;;9.51;94.75;100463.53;4936444;29;20078;-86
2021/10/26 04:36:29;;;;;;;15.00;10.63;;;;;;;9.42;94.76;100461.31;4935638;29;20044;-87
2021/10/26 04:38:57;;;;;;;17.42;10.27;;;;;;;9.85;93.17;100465.53;4935502;29;20130;-87
2021/10/26 04:41:26;;;;;;;20.95;11.02;;;;;;;9.92;92.60;100474.78;4934951;29;20051;-85
2021/10/26 04:43:56;;;;;;;13.63;10.43;;;;;;;9.58;94.22;100464.09;4927950;29;20391;-86
2021/10/26 04:46:22;;;;;;;13.55;10.23;;;;;;;9.61;94.56;100464.84;4918979;29;20055;-84
2021/10/26 04:48:51;;;;;;;15.07;10.43;;;;;;;9.66;94.37;100464.66;4919454;29;20419;-84
2021/10/26 04:51:18;;;;;;;21.17;12.75;;;;;;;9.57;95.03;100460.66;4934785;29;20383;-83
2021/10/26 04:53:47;;;;;;;15.25;10.35;;;;;;;9.68;94.83;100460.19;4930764;29;20103;-89
2021/10/26 04:56:14;;;;;;;16.80;10.98;;;;;;;9.61;94.89;100458.78;4927402;29;20596;-84
2021/10/26 04:59:01;;;;;;;18.77;11.35;;;;;;;9.64;95.27;100456.91;4923182;29;20131;-82
2021/10/26 05:01:29;;;;;;;19.42;10.98;;;;;;;9.63;94.32;100463.00;4931664;29;20040;-86
2021/10/26 05:03:57;;;;;;;17.05;11.07;;;;;;;9.57;95.18;100467.63;4923624;29;20044;-82
2021/10/26 05:06:24;;;;;;;19.70;11.27;;;;;;;9.61;94.78;100469.19;4932101;29;20281;-81
2021/10/26 05:08:53;;;;;;;13.15;10.65;;;;;;;9.79;94.31;100470.16;4931426;29;20042;-80
2021/10/26 05:11:23;;;;;;;14.13;10.93;;;;;;;9.67;94.12;100474.13;4931500;29;20131;-81
2021/10/26 05:13:51;;;;;;;15.27;10.23;;;;;;;9.88;93.14;100470.59;4916010;29;20095;-81
2021/10/26 05:16:39;;;;;;;22.55;11.32;;;;;;;9.63;94.18;100470.81;4932155;29;20103;-82
2021/10/26 05:19:25;;;;;;;18.85;11.68;;;;;;;9.77;94.16;100472.00;4930290;29;20071;-82
2021/10/26 05:22:11;;;;;;;12.43;10.55;;;;;;;9.71;94.48;100471.34;4932767;29;20051;-82
2021/10/26 05:24:58;;;;;;;16.25;11.00;;;;;;;9.78;93.90;100468.47;4916309;29;20506;-81
2021/10/26 05:27:51;;;;;;;15.23;10.00;;;;;;;9.59;94.57;100479.69;4924398;29;20056;-84
2021/10/26 05:30:17;;;;;;;15.98;11.05;;;;;;;9.61;94.76;100479.59;4940816;29;20048;-83
2021/10/26 05:32:44;;;;;;;17.55;12.30;;;;;;;9.74;95.24;100485.97;4928222;29;20070;-83
2021/10/26 05:35:14;;;;;;;13.27;10.25;;;;;;;9.77;94.23;100485.84;4927931;29;20055;-84
2021/10/26 05:37:41;;;;;;;13.68;11.23;;;;;;;10.02;92.97;100490.00;4925482;29;20044;-84
2021/10/26 05:40:09;;;;;;;18.42;11.70;;;;;;;10.06;91.86;100492.38;4926810;29;20073;-84
2021/10/26 05:42:36;;;;;;;13.98;9.70;;;;;;;10.03;91.42;100491.69;4925274;29;20507;-81
2021/10/26 05:45:04;;;;;;;17.35;11.45;;;;;;;9.90;92.68;100493.97;4924650;29;20058;-82
2021/10/26 05:47:32;;;;;;;14.90;9.80;;;;;;;9.98;91.55;100492.75;4925747;29;20040;-85
2021/10/26 05:49:58;;;;;;;12.10;9.43;;;;;;;9.98;92.29;100495.34;4932397;29;20055;-84
2021/10/26 05:52:25;;;;;;;19.42;11.93;;;;;;;10.04;90.90;100494.22;4929899;29;20044;-88
2021/10/26 05:54:52;;;;;;;15.18;10.23;;;;;;;10.09;90.11;100487.06;4932357;29;20055;-88
2021/10/26 05:57:19;;;;;;;15.93;10.30;;;;;;;10.10;90.87;100482.69;4932105;29;20134;-84
2021/10/26 05:59:46;;;;;;;11.88;9.38;;;;;;;10.09;90.79;100492.25;4930711;29;20368;-86
2021/10/26 06:02:12;;;;;;;14.48;11.50;;;;;;;10.20;91.17;100494.41;4930103;29;20067;-87
2021/10/26 06:04:40;;;;;;;15.45;9.73;;;;;;;10.10;90.99;100503.53;4943108;29;20040;-82
2021/10/26 06:07:07;;;;;;;17.55;9.98;;;;;;;10.15;90.48;100502.41;4931815;29;20105;-83
2021/10/26 06:09:35;;;;;;;18.58;9.60;;;;;;;10.09;89.32;100505.28;4914861;29;20051;-83
2021/10/26 06:12:04;;;;;;;12.60;9.75;;;;;;;10.15;89.90;100499.81;4932570;29;20040;-84
2021/10/26 06:14:34;;;;;;;13.18;10.05;;;;;;;10.17;88.09;100511.03;4931998;29;20093;-86
2021/10/26 06:17:01;;;;;;;15.57;9.68;;;;;;;10.18;87.12;100506.66;4930757;29;20118;-85
2021/10/26 06:19:32;;;;;;;11.05;9.60;;;;;;;10.29;86.77;100509.66;4928512;29;20046;-85
2021/10/26 06:22:00;;;;;;;15.82;9.15;;;;;;;10.21;90.01;100522.13;4928850;29;20047;-89
2021/10/26 06:24:29;;;;;;;15.13;9.30;;;;;;;10.16;88.58;100524.09;4928736;29;20512;-91
2021/10/26 06:26:58;;;;;;;18.42;10.15;;;;;;;10.23;86.66;100528.16;4931061;29;20102;-88
2021/10/26 06:29:25;;;;;;;18.15;10.75;;;;;;;10.32;85.32;100529.50;4931643;29;20462;-88
2021/10/26 06:32:15;;;;;;;13.63;9.70;;;;;;;10.30;85.12;100526.97;4917176;29;20534;-85
2021/10/26 06:35:06;;;;;;;37.65;10.57;;;;;;;10.21;85.09;100527.34;4924410;29;20075;-88
2021/10/26 06:37:34;;;;;;;28.08;10.40;;;;;;;10.32;84.32;100521.69;4931970;29;20554;-89
2021/10/26 06:40:04;;;;;;;22.42;10.90;;;;;;;10.42;85.01;100530.78;4928117;29;20087;-89
2021/10/26 06:42:35;;;;;;;12.48;9.43;;;;;;;10.30;85.45;100529.59;4929904;29;20044;-83
2021/10/26 06:45:25;;;;;;;22.40;8.80;;;;;;;10.32;85.70;100540.78;4930575;29;20374;-80
2021/10/26 06:48:20;;;;;;;14.35;10.38;;;;;;;10.40;85.97;100537.84;4932529;29;20083;-80
2021/10/26 06:51:15;;;;;;;11.30;9.52;;;;;;;10.56;85.22;100548.44;4925077;29;20048;-80
2021/10/26 06:54:02;;;;;;;13.95;9.95;;;;;;;10.53;85.62;100548.56;4930105;29;20046;-82
2021/10/26 06:56:47;;;;;;;18.30;10.32;;;;;;;10.59;85.19;100558.72;4930912;29;20111;-82
2021/10/26 06:59:47;;;;;;;13.85;9.90;;;;;;;10.65;85.54;100555.81;4921727;29;20044;-91
2021/10/26 07:42:59;;;;;;;15.40;10.75;;;;;;;10.52;82.88;100593.78;6252383;22;1567228;-85
2021/10/26 07:45:45;;;;;;;16.05;11.98;;;;;;;10.53;82.58;100593.72;6321105;22;20038;-88
2021/10/26 07:48:13;;;;;;;20.25;11.75;;;;;;;10.79;81.91;100587.34;6333735;22;20025;-92
2021/10/26 07:50:40;;;;;;;21.90;13.02;;;;;;;10.77;81.90;100591.78;6296560;22;20068;-93
2021/10/26 07:53:08;;;;;;;17.45;11.38;;;;;;;10.56;82.00;100593.59;6296706;22;20015;-90
2021/10/26 07:55:52;;;;;;;19.02;11.00;;;;;;;10.90;81.06;100590.28;6295973;22;20462;-92
2021/10/26 07:58:20;;;;;;;14.90;11.10;;;;;;;11.22;79.05;100580.13;6291348;22;20031;-89
2021/10/26 08:00:47;;;;;;;15.25;12.18;;;;;;;10.95;79.56;100587.47;6297899;22;20089;-91
2021/10/26 08:03:34;;;;;;;18.73;12.32;;;;;;;11.20;78.52;100589.81;6327025;22;20030;-91
2021/10/26 08:06:05;;;;;;;22.92;15.38;;;;;;;11.31;77.15;100579.69;6310178;22;20019;-94
2021/10/26 08:08:37;;;;;;;17.67;12.50;;;;;;;11.27;76.01;100578.16;6306158;22;20015;-94
2021/10/26 08:11:14;;;;;;;19.48;14.23;;;;;;;11.78;74.27;100585.22;6279704;22;20123;-96
2021/10/26 08:13:43;;;;;;;24.52;12.70;;;;;;;11.99;73.71;100577.28;6305287;22;20019;-89
2021/10/26 08:16:25;;;;;;;16.90;12.57;;;;;;;12.07;72.05;100575.09;6309781;22;20068;-92
2021/10/26 08:18:53;;;;;;;19.17;12.13;;;;;;;11.61;74.19;100584.34;6307910;22;20026;-88
2021/10/26 08:21:20;;;;;;;19.35;12.98;;;;;;;11.46;75.19;100584.19;6295863;22;20065;-86
2021/10/26 08:23:51;;;;;;;19.85;13.63;;;;;;;11.46;74.77;100581.59;6295057;22;20019;-86
2021/10/26 08:26:27;;;;;;;21.23;13.10;;;;;;;11.66;74.67;100585.81;6295146;22;20015;-89
2021/10/26 08:29:05;;;;;;;18.38;12.38;;;;;;;11.51;74.55;100587.44;6273674;22;20023;-89
2021/10/26 08:31:45;;;;;;;17.08;12.18;;;;;;;11.88;73.91;100584.78;6296717;22;20063;-92
2021/10/26 08:34:42;;;;;;;22.80;14.95;;;;;;;11.74;73.27;100588.91;6295206;22;20094;-91
2021/10/26 08:37:13;;;;;;;29.58;13.77;;;;;;;12.03;72.13;100581.41;6287569;22;20389;-88
2021/10/26 08:39:49;;;;;;;17.95;13.40;;;;;;;12.28;70.86;100586.22;6288002;22;20451;-90
2021/10/26 08:42:18;;;;;;;19.63;13.70;;;;;;;11.99;71.53;100577.28;6284727;22;20020;-89
2021/10/26 08:44:46;;;;;;;17.40;13.32;;;;;;;12.06;71.66;100574.25;6280343;22;20459;-89
2021/10/26 08:47:15;;;;;;;24.90;15.45;;;;;;;12.15;69.81;100572.97;6280718;22;20128;-89
2021/10/26 08:50:03;;;;;;;17.65;13.85;;;;;;;11.95;70.45;100581.81;6307796;22;20042;-88
2021/10/26 08:52:36;;;;;;;22.33;14.50;;;;;;;11.84;71.18;100581.50;6280864;22;20164;-89
2021/10/26 08:55:44;;;;;;;26.77;17.77;;;;;;;11.95;70.70;100584.41;6223417;23;20090;-89
2021/10/26 09:01:58;;;;;;;22.13;14.48;;;;;;;12.57;68.50;100580.34;5839792;23;20028;-82
2021/10/26 09:04:33;;;;;;;19.75;13.82;;;;;;;12.06;69.46;100574.25;6236274;23;20107;-84
2021/10/26 09:07:06;;;;;;;26.77;15.25;;;;;;;12.27;68.82;100574.09;6239774;23;20016;-82
2021/10/26 09:09:38;;;;;;;17.70;14.02;;;;;;;12.17;68.50;100570.25;6209391;23;20119;-82
2021/10/26 09:18:07;;;;;;;20.90;14.82;;;;;;;12.17;68.53;100565.88;6224667;23;20056;-83
2021/10/26 09:28:57;;;;;;;18.05;14.27;;;;;;;12.72;66.64;100562.13;5089330;27;20408;-83
2021/10/26 09:31:27;;;;;;;21.60;15.38;;;;;;;12.34;67.70;100567.59;5084103;28;20044;-79
2021/10/26 09:34:02;;;;;;;19.52;14.63;;;;;;;12.98;66.14;100561.53;5083866;28;20040;-82
2021/10/26 09:36:32;;;;;;;20.00;14.95;;;;;;;13.21;65.13;100560.31;5085968;28;20044;-80
2021/10/26 09:39:11;;;;;;;28.80;15.43;;;;;;;13.15;64.95;100559.78;5088239;28;20058;-81
2021/10/26 09:42:01;;;;;;;18.63;14.60;;;;;;;13.20;64.05;100558.59;5086783;28;20391;-80
2021/10/26 09:44:31;;;;;;;24.63;14.40;;;;;;;13.26;63.88;100557.44;5088214;28;20048;-80
2021/10/26 09:47:00;;;;;;;27.27;15.88;;;;;;;13.00;64.47;100551.03;5088640;28;20101;-80
2021/10/26 09:49:36;;;;;;;24.27;15.65;;;;;;;13.08;64.15;100551.41;5088030;28;20040;-80
2021/10/26 09:52:17;;;;;;;17.40;15.48;;;;;;;13.05;64.05;100560.31;5088651;28;20109;-79
2021/10/26 09:54:58;;;;;;;20.38;15.43;;;;;;;13.10;63.35;100562.63;5088852;28;20398;-82
2021/10/26 09:57:35;;;;;;;25.58;15.38;;;;;;;12.81;62.99;100559.00;5088893;28;20048;-82
2021/10/26 10:00:05;;;;;;;18.75;14.32;;;;;;;13.19;62.68;100561.28;5088209;28;20045;-83
2021/10/26 10:02:38;;;;;;;18.15;14.50;;;;;;;12.74;63.37;100560.28;5088770;28;20052;-82
2021/10/26 10:05:08;;;;;;;19.13;15.20;;;;;;;13.10;63.21;100560.88;5088964;28;20040;-80
2021/10/26 10:07:37;;;;;;;20.50;14.38;;;;;;;12.95;63.07;100566.97;5088638;28;20466;-81
2021/10/26 10:10:11;;;;;;;17.42;14.80;;;;;;;12.91;62.46;100552.34;5089042;28;20539;-83
2021/10/26 10:12:44;;;;;;;18.92;15.45;;;;;;;13.14;62.13;100563.31;5087095;28;20121;-83
2021/10/26 10:15:14;;;;;;;22.10;16.13;;;;;;;13.45;61.35;100555.47;5088055;28;20052;-85
2021/10/26 10:17:42;;;;;;;24.95;14.65;;;;;;;12.98;61.09;100537.16;5073655;28;20040;-83
2021/10/26 10:20:11;;;;;;;25.05;15.75;;;;;;;13.60;59.06;100538.88;5076400;28;20048;-86
2021/10/26 10:22:41;;;;;;;19.95;14.85;;;;;;;13.80;59.14;100540.34;5086679;28;20036;-83
2021/10/26 10:25:11;;;;;;;22.77;15.38;;;;;;;13.78;59.18;100534.31;5087288;28;20036;-82
2021/10/26 10:27:41;;;;;;;24.35;15.88;;;;;;;13.62;59.85;100541.41;5084922;28;20059;-83
2021/10/26 10:30:10;;;;;;;21.33;16.10;;;;;;;13.20;60.83;100535.03;5089777;28;20556;-85
2021/10/26 10:32:38;;;;;;;21.25;15.15;;;;;;;13.40;61.34;100533.09;5092027;28;20051;-84
2021/10/26 10:35:12;;;;;;;20.65;15.27;;;;;;;13.50;60.42;100532.47;5078211;28;20036;-83
2021/10/26 10:37:41;;;;;;;18.75;14.57;;;;;;;13.71;59.71;100522.53;5089041;28;20063;-84
2021/10/26 10:40:09;;;;;;;19.48;15.13;;;;;;;14.04;59.32;100519.69;5061896;28;20072;-84
2021/10/26 10:42:49;;;;;;;19.30;14.82;;;;;;;13.73;59.56;100515.41;5067300;28;20041;-86
2021/10/26 10:45:26;;;;;;;17.08;14.75;;;;;;;13.22;61.31;100522.75;5065209;28;20037;-85
2021/10/26 10:47:55;;;;;;;22.60;15.82;;;;;;;12.75;63.49;100520.13;5075186;28;20482;-84
2021/10/26 10:50:28;;;;;;;16.35;14.07;;;;;;;13.17;62.70;100516.06;5060659;28;20063;-84
2021/10/26 10:53:09;;;;;;;19.60;14.77;;;;;;;13.04;62.89;100521.09;5074330;28;20405;-84
2021/10/26 10:55:37;;;;;;;20.65;16.30;;;;;;;12.75;63.62;100514.88;5061199;28;20389;-84
2021/10/26 10:58:27;;;;;;;21.45;15.45;;;;;;;12.87;63.81;100519.44;5068072;28;20045;-83
2021/10/26 11:01:20;;;;;;;21.98;14.73;;;;;;;12.55;65.10;100508.94;5061878;28;20040;-85
2021/10/26 11:03:47;;;;;;;18.48;15.32;;;;;;;12.52;64.89;100503.91;5070968;28;20049;-81
2021/10/26 11:06:42;;;;;;;25.83;15.93;;;;;;;12.51;65.26;100503.97;5065161;28;20044;-83
2021/10/26 11:09:38;;;;;;;20.45;16.35;;;;;;;12.95;64.13;100506.78;5065869;28;20501;-84
2021/10/26 11:12:27;;;;;;;18.33;14.88;;;;;;;13.09;64.41;100496.38;5063560;28;20087;-84
2021/10/26 11:15:00;;;;;;;20.65;14.70;;;;;;;13.38;63.35;100483.44;5063712;28;20049;-86
2021/10/26 11:17:33;;;;;;;17.92;13.98;;;;;;;12.99;63.60;100486.50;5059235;28;20139;-84
2021/10/26 11:20:01;;;;;;;19.98;14.73;;;;;;;13.69;62.59;100477.25;5056165;28;20053;-84
2021/10/26 11:22:46;;;;;;;21.77;13.93;;;;;;;13.81;61.15;100479.13;5067654;28;20048;-81
2021/10/26 11:25:20;;;;;;;;;;;;;;;13.85;61.98;100482.44;5070041;28;20040;-82
2021/10/26 11:27:48;;;;;;;24.05;13.40;;;;;;;13.84;61.56;100472.84;5071096;28;19920;-82
2021/10/26 11:30:44;;;;;;;21.45;14.82;;;;;;;13.69;62.13;100471.16;5068949;28;20449;-84
2021/10/26 11:33:16;;;;;;;20.58;15.75;;;;;;;13.87;62.29;100473.53;5072208;28;20145;-84
2021/10/26 11:36:03;;;;;;;18.60;14.30;;;;;;;14.01;61.62;100469.22;5066121;28;20048;-84
2021/10/26 11:38:32;;;;;;;20.48;14.85;;;;;;;14.14;61.19;100463.16;5064468;28;20067;-84
2021/10/26 11:41:12;;;;;;;20.65;14.85;;;;;;;14.24;60.42;100462.59;5056174;28;20083;-82
2021/10/26 11:43:50;;;;;;;18.73;13.73;;;;;;;14.13;61.04;100461.47;5057070;28;20052;-83
2021/10/26 11:46:29;;;;;;;20.45;14.68;;;;;;;14.62;60.17;100458.44;5062136;28;20068;-83
2021/10/26 11:49:04;;;;;;;18.38;12.82;;;;;;;14.67;60.23;100460.78;5066742;28;20055;-83
2021/10/26 11:51:37;;;;;;;21.23;13.07;;;;;;;14.53;60.47;100453.75;5064491;28;20040;-82
2021/10/26 11:54:21;;;;;;;21.63;13.40;;;;;;;14.13;60.25;100453.59;5062761;28;20045;-82
2021/10/26 11:56:52;;;;;;;20.45;13.40;;;;;;;14.37;60.48;100451.22;5060950;28;20049;-82
2021/10/26 11:59:21;;;;;;;19.02;12.90;;;;;;;14.64;58.98;100461.78;5064965;28;20076;-85
2021/10/26 12:02:16;;;;;;;17.25;12.50;;;;;;;14.68;60.56;100447.53;5057546;28;20135;-82
2021/10/26 12:04:53;;;;;;;18.75;11.32;;;;;;;15.05;59.00;100449.59;5053515;28;20550;-82
2021/10/26 12:07:22;;;;;;;13.05;11.07;;;;;;;14.98;59.07;100441.28;5057306;28;20045;-84
2021/10/26 12:09:53;;;;;;;10.93;9.80;;;;;;;15.00;58.31;100436.75;5059435;28;20057;-83
2021/10/26 12:12:26;;;;;;;13.73;9.07;;;;;;;15.01;57.46;100441.06;5059267;28;20041;-84
2021/10/26 12:14:55;;;;;;;19.45;11.13;;;;;;;15.05;58.23;100439.91;5067749;28;20040;-84
2021/10/26 12:17:32;;;;;;;11.18;9.23;;;;;;;15.00;57.28;100435.91;5056633;28;20039;-84
2021/10/26 12:20:06;;;;;;;14.68;9.82;;;;;;;15.23;56.15;100437.03;5061532;28;20036;-83
2021/10/26 12:22:45;;;;;;;13.05;10.70;;;;;;;15.38;55.71;100428.13;5054158;28;20045;-82
2021/10/26 12:25:30;;;;;;;17.55;10.85;;;;;;;15.16;55.67;100419.03;5055649;28;20065;-83
2021/10/26 12:28:08;;;;;;;10.70;8.32;;;;;;;15.30;55.96;100425.19;5061378;28;20075;-83
2021/10/26 12:30:49;;;;;;;15.68;10.63;;;;;;;14.99;55.41;100419.31;5071219;28;20032;-82
2021/10/26 12:33:18;;;;;;;14.82;9.02;;;;;;;14.51;57.19;100424.19;5071931;28;20059;-84
2021/10/26 12:35:46;;;;;;;13.40;9.50;;;;;;;14.52;57.35;100417.16;5071280;28;20098;-83